sensor_id;sensor_type;location;lat;lon;timestamp;temperature;humidity
38854;DHT22;24606;51.992;4.198;2023-12-20T00:03:27;10.20;99.90
38854;DHT22;24606;51.992;4.198;2023-12-20T00:08:29;9.40;99.90
38854;DHT22;24606;51.992;4.198;2023-12-20T00:13:33;9.30;99.90
38854;DHT22;24606;51.992;4.198;2023-12-20T00:18:35;9.90;99.90
38854;DHT22;24606;51.992;4.198;2023-12-20T00:23:37;9.30;99.90
38854;DHT22;24606;51.992;4.198;2023-12-20T00:28:40;9.40;99.90
38854;DHT22;24606;51.992;4.198;2023-12-20T00:33:43;9.80;99.90
38854;DHT22;24606;51.992;4.198;2023-12-20T00:38:47;9.90;99.90
38854;DHT22;24606;51.992;4.198;2023-12-20T00:43:52;9.20;99.90
38854;DHT22;24606;51.992;4.198;2023-12-20T00:48:53;9.10;99.90
38854;DHT22;24606;51.992;4.198;2023-12-20T00:53:55;9.50;99.90
38854;DHT22;24606;51.992;4.198;2023-12-20T00:58:59;10.20;99.90
38854;DHT22;24606;51.992;4.198;2023-12-20T01:04:01;9.90;99.90
38854;DHT22;24606;51.992;4.198;2023-12-20T01:09:04;9.60;99.90
38854;DHT22;24606;51.992;4.198;2023-12-20T01:14:09;9.10;99.90
38854;DHT22;24606;51.992;4.198;2023-12-20T01:19:13;9.00;99.90
38854;DHT22;24606;51.992;4.198;2023-12-20T01:24:15;9.60;99.90
38854;DHT22;24606;51.992;4.198;2023-12-20T01:29:19;9.30;99.90
38854;DHT22;24606;51.992;4.198;2023-12-20T01:34:21;9.30;99.90
38854;DHT22;24606;51.992;4.198;2023-12-20T01:39:23;9.30;99.90
38854;DHT22;24606;51.992;4.198;2023-12-20T01:44:26;8.90;99.90
38854;DHT22;24606;51.992;4.198;2023-12-20T01:49:28;9.10;99.90
38854;DHT22;24606;51.992;4.198;2023-12-20T01:54:31;9.70;99.90
38854;DHT22;24606;51.992;4.198;2023-12-20T01:59:35;9.80;99.90
38854;DHT22;24606;51.992;4.198;2023-12-20T02:04:37;9.20;99.90
38854;DHT22;24606;51.992;4.198;2023-12-20T02:09:40;9.10;99.90
38854;DHT22;24606;51.992;4.198;2023-12-20T02:14:43;9.30;99.90
38854;DHT22;24606;51.992;4.198;2023-12-20T02:19:45;9.90;99.90
38854;DHT22;24606;51.992;4.198;2023-12-20T02:24:49;9.80;99.90
38854;DHT22;24606;51.992;4.198;2023-12-20T02:29:51;9.90;99.90
38854;DHT22;24606;51.992;4.198;2023-12-20T02:34:54;9.80;99.90
38854;DHT22;24606;51.992;4.198;2023-12-20T02:39:57;9.50;99.90
38854;DHT22;24606;51.992;4.198;2023-12-20T02:44:59;9.50;99.90
38854;DHT22;24606;51.992;4.198;2023-12-20T02:50:01;9.10;99.90
38854;DHT22;24606;51.992;4.198;2023-12-20T02:55:06;8.80;99.90
38854;DHT22;24606;51.992;4.198;2023-12-20T03:00:08;9.40;99.90
38854;DHT22;24606;51.992;4.198;2023-12-20T03:05:11;9.30;99.90
38854;DHT22;24606;51.992;4.198;2023-12-20T03:10:14;8.90;99.90
38854;DHT22;24606;51.992;4.198;2023-12-20T03:15:16;8.90;99.90
38854;DHT22;24606;51.992;4.198;2023-12-20T03:20:18;9.00;99.90
38854;DHT22;24606;51.992;4.198;2023-12-20T03:25:22;8.70;99.90
38854;DHT22;24606;51.992;4.198;2023-12-20T03:30:23;8.70;99.90
38854;DHT22;24606;51.992;4.198;2023-12-20T03:35:25;9.40;99.90
38854;DHT22;24606;51.992;4.198;2023-12-20T03:40:29;8.90;99.90
38854;DHT22;24606;51.992;4.198;2023-12-20T03:45:30;8.80;99.90
38854;DHT22;24606;51.992;4.198;2023-12-20T03:50:33;8.80;99.90
38854;DHT22;24606;51.992;4.198;2023-12-20T03:55:39;8.60;99.90
38854;DHT22;24606;51.992;4.198;2023-12-20T04:15:30;8.90;99.90
38854;DHT22;24606;51.992;4.198;2023-12-20T04:20:32;8.80;99.90
38854;DHT22;24606;51.992;4.198;2023-12-20T04:25:34;8.80;99.90
38854;DHT22;24606;51.992;4.198;2023-12-20T04:30:38;8.80;99.90
38854;DHT22;24606;51.992;4.198;2023-12-20T04:35:40;8.30;99.90
38854;DHT22;24606;51.992;4.198;2023-12-20T04:40:43;8.50;99.90
38854;DHT22;24606;51.992;4.198;2023-12-20T04:45:46;8.70;99.90
38854;DHT22;24606;51.992;4.198;2023-12-20T04:50:48;8.50;99.90
38854;DHT22;24606;51.992;4.198;2023-12-20T04:55:50;8.90;99.90
38854;DHT22;24606;51.992;4.198;2023-12-20T05:00:53;8.40;99.90
38854;DHT22;24606;51.992;4.198;2023-12-20T05:05:56;8.40;99.90
38854;DHT22;24606;51.992;4.198;2023-12-20T05:10:58;8.20;99.90
38854;DHT22;24606;51.992;4.198;2023-12-20T05:16:01;8.80;99.90
38854;DHT22;24606;51.992;4.198;2023-12-20T05:21:04;8.60;99.90
38854;DHT22;24606;51.992;4.198;2023-12-20T05:26:06;8.90;99.90
38854;DHT22;24606;51.992;4.198;2023-12-20T05:31:09;8.80;99.90
38854;DHT22;24606;51.992;4.198;2023-12-20T05:36:11;8.80;99.90
38854;DHT22;24606;51.992;4.198;2023-12-20T05:41:15;8.70;99.90
38854;DHT22;24606;51.992;4.198;2023-12-20T05:46:18;9.20;99.90
38854;DHT22;24606;51.992;4.198;2023-12-20T05:51:21;9.00;99.90
38854;DHT22;24606;51.992;4.198;2023-12-20T05:56:23;8.60;99.90
38854;DHT22;24606;51.992;4.198;2023-12-20T06:01:27;8.50;99.90
38854;DHT22;24606;51.992;4.198;2023-12-20T06:06:29;8.80;99.90
38854;DHT22;24606;51.992;4.198;2023-12-20T06:11:31;9.10;99.90
38854;DHT22;24606;51.992;4.198;2023-12-20T06:16:34;9.20;99.90
38854;DHT22;24606;51.992;4.198;2023-12-20T06:21:36;9.10;99.90
38854;DHT22;24606;51.992;4.198;2023-12-20T06:26:38;8.90;99.90
38854;DHT22;24606;51.992;4.198;2023-12-20T06:31:41;8.80;99.90
38854;DHT22;24606;51.992;4.198;2023-12-20T06:36:43;8.90;99.90
38854;DHT22;24606;51.992;4.198;2023-12-20T06:41:45;9.10;99.90
38854;DHT22;24606;51.992;4.198;2023-12-20T06:46:48;9.90;99.90
38854;DHT22;24606;51.992;4.198;2023-12-20T06:51:50;9.20;99.90
38854;DHT22;24606;51.992;4.198;2023-12-20T06:56:53;9.00;99.90
38854;DHT22;24606;51.992;4.198;2023-12-20T07:01:57;8.50;99.90
38854;DHT22;24606;51.992;4.198;2023-12-20T07:06:58;8.90;99.90
38854;DHT22;24606;51.992;4.198;2023-12-20T07:12:01;9.00;99.90
38854;DHT22;24606;51.992;4.198;2023-12-20T07:17:04;9.00;99.90
38854;DHT22;24606;51.992;4.198;2023-12-20T07:22:11;8.70;99.90
38854;DHT22;24606;51.992;4.198;2023-12-20T07:27:17;8.90;99.90
38854;DHT22;24606;51.992;4.198;2023-12-20T07:32:20;8.70;99.90
38854;DHT22;24606;51.992;4.198;2023-12-20T07:37:22;8.70;99.90
38854;DHT22;24606;51.992;4.198;2023-12-20T07:42:24;8.70;99.90
38854;DHT22;24606;51.992;4.198;2023-12-20T07:47:30;8.90;99.90
38854;DHT22;24606;51.992;4.198;2023-12-20T07:52:32;8.90;99.90
38854;DHT22;24606;51.992;4.198;2023-12-20T07:57:34;8.70;99.90
38854;DHT22;24606;51.992;4.198;2023-12-20T08:02:40;9.10;99.90
38854;DHT22;24606;51.992;4.198;2023-12-20T08:07:42;9.10;99.90
38854;DHT22;24606;51.992;4.198;2023-12-20T08:12:44;9.10;99.90
38854;DHT22;24606;51.992;4.198;2023-12-20T08:17:47;9.10;99.90
38854;DHT22;24606;51.992;4.198;2023-12-20T08:22:51;9.20;99.90
38854;DHT22;24606;51.992;4.198;2023-12-20T08:27:53;9.10;99.90
38854;DHT22;24606;51.992;4.198;2023-12-20T08:32:57;9.50;99.90
38854;DHT22;24606;51.992;4.198;2023-12-20T08:38:01;9.20;99.90
38854;DHT22;24606;51.992;4.198;2023-12-20T08:43:03;9.30;99.90
38854;DHT22;24606;51.992;4.198;2023-12-20T08:48:07;9.40;99.90
38854;DHT22;24606;51.992;4.198;2023-12-20T08:53:09;9.60;99.90
38854;DHT22;24606;51.992;4.198;2023-12-20T08:58:11;9.50;99.90
38854;DHT22;24606;51.992;4.198;2023-12-20T09:03:15;9.70;99.90
38854;DHT22;24606;51.992;4.198;2023-12-20T09:08:17;9.70;99.90
38854;DHT22;24606;51.992;4.198;2023-12-20T09:13:21;9.80;99.90
38854;DHT22;24606;51.992;4.198;2023-12-20T09:18:30;9.80;99.90
38854;DHT22;24606;51.992;4.198;2023-12-20T09:23:32;9.60;99.90
38854;DHT22;24606;51.992;4.198;2023-12-20T09:28:34;9.50;99.90
38854;DHT22;24606;51.992;4.198;2023-12-20T09:33:38;9.40;99.90
38854;DHT22;24606;51.992;4.198;2023-12-20T09:38:41;9.20;99.90
38854;DHT22;24606;51.992;4.198;2023-12-20T09:43:43;9.50;99.90
38854;DHT22;24606;51.992;4.198;2023-12-20T09:48:46;9.50;99.90
38854;DHT22;24606;51.992;4.198;2023-12-20T09:53:50;9.70;99.90
38854;DHT22;24606;51.992;4.198;2023-12-20T09:58:53;10.10;99.90
38854;DHT22;24606;51.992;4.198;2023-12-20T10:03:58;9.50;99.90
38854;DHT22;24606;51.992;4.198;2023-12-20T10:09:02;9.60;99.90
38854;DHT22;24606;51.992;4.198;2023-12-20T10:14:07;10.10;99.90
38854;DHT22;24606;51.992;4.198;2023-12-20T10:19:10;10.00;99.90
38854;DHT22;24606;51.992;4.198;2023-12-20T10:24:17;10.60;99.90
38854;DHT22;24606;51.992;4.198;2023-12-20T10:29:19;10.70;99.90
38854;DHT22;24606;51.992;4.198;2023-12-20T10:34:22;10.20;99.90
38854;DHT22;24606;51.992;4.198;2023-12-20T10:39:25;10.30;99.90
38854;DHT22;24606;51.992;4.198;2023-12-20T10:44:30;10.00;99.90
38854;DHT22;24606;51.992;4.198;2023-12-20T10:49:36;10.40;99.90
38854;DHT22;24606;51.992;4.198;2023-12-20T10:54:40;10.30;99.90
38854;DHT22;24606;51.992;4.198;2023-12-20T10:59:43;10.50;99.90
38854;DHT22;24606;51.992;4.198;2023-12-20T11:04:55;10.30;99.90
38854;DHT22;24606;51.992;4.198;2023-12-20T11:10:02;10.90;99.90
38854;DHT22;24606;51.992;4.198;2023-12-20T11:15:07;10.80;99.90
38854;DHT22;24606;51.992;4.198;2023-12-20T11:20:11;10.40;99.90
38854;DHT22;24606;51.992;4.198;2023-12-20T11:25:14;11.20;99.90
38854;DHT22;24606;51.992;4.198;2023-12-20T11:30:16;11.00;99.90
38854;DHT22;24606;51.992;4.198;2023-12-20T11:35:20;10.40;99.90
38854;DHT22;24606;51.992;4.198;2023-12-20T11:40:23;10.70;99.90
38854;DHT22;24606;51.992;4.198;2023-12-20T11:45:26;11.00;99.90
38854;DHT22;24606;51.992;4.198;2023-12-20T11:50:30;10.70;99.90
38854;DHT22;24606;51.992;4.198;2023-12-20T11:55:34;10.70;99.90
38854;DHT22;24606;51.992;4.198;2023-12-20T12:00:37;10.90;99.90
38854;DHT22;24606;51.992;4.198;2023-12-20T12:05:41;10.50;99.90
38854;DHT22;24606;51.992;4.198;2023-12-20T12:10:44;11.20;99.90
38854;DHT22;24606;51.992;4.198;2023-12-20T12:15:48;10.80;99.90
38854;DHT22;24606;51.992;4.198;2023-12-20T12:21:00;11.20;99.90
38854;DHT22;24606;51.992;4.198;2023-12-20T12:26:04;10.70;99.90
38854;DHT22;24606;51.992;4.198;2023-12-20T12:31:06;11.20;99.90
38854;DHT22;24606;51.992;4.198;2023-12-20T12:36:09;11.20;99.90
38854;DHT22;24606;51.992;4.198;2023-12-20T12:41:13;11.30;99.90
38854;DHT22;24606;51.992;4.198;2023-12-20T12:46:16;11.10;99.90
38854;DHT22;24606;51.992;4.198;2023-12-20T12:51:19;11.20;99.90
38854;DHT22;24606;51.992;4.198;2023-12-20T12:56:21;10.80;99.90
38854;DHT22;24606;51.992;4.198;2023-12-20T13:01:30;11.40;99.90
38854;DHT22;24606;51.992;4.198;2023-12-20T13:06:35;10.80;99.90
38854;DHT22;24606;51.992;4.198;2023-12-20T13:11:37;10.70;99.90
38854;DHT22;24606;51.992;4.198;2023-12-20T13:16:42;10.50;99.90
38854;DHT22;24606;51.992;4.198;2023-12-20T13:21:48;10.50;99.90
38854;DHT22;24606;51.992;4.198;2023-12-20T13:26:50;10.50;99.90
38854;DHT22;24606;51.992;4.198;2023-12-20T13:31:53;10.20;99.90
38854;DHT22;24606;51.992;4.198;2023-12-20T13:36:56;10.50;99.90
38854;DHT22;24606;51.992;4.198;2023-12-20T13:41:58;10.40;99.90
38854;DHT22;24606;51.992;4.198;2023-12-20T13:47:00;10.60;99.90
38854;DHT22;24606;51.992;4.198;2023-12-20T13:52:05;10.50;99.90
38854;DHT22;24606;51.992;4.198;2023-12-20T13:57:08;10.80;99.90
38854;DHT22;24606;51.992;4.198;2023-12-20T14:02:10;10.50;99.90
38854;DHT22;24606;51.992;4.198;2023-12-20T14:07:13;10.50;99.90
38854;DHT22;24606;51.992;4.198;2023-12-20T14:12:16;10.50;99.90
38854;DHT22;24606;51.992;4.198;2023-12-20T14:17:18;10.20;99.90
38854;DHT22;24606;51.992;4.198;2023-12-20T14:22:22;10.70;99.90
38854;DHT22;24606;51.992;4.198;2023-12-20T14:27:26;10.10;99.90
38854;DHT22;24606;51.992;4.198;2023-12-20T14:32:28;10.40;99.90
38854;DHT22;24606;51.992;4.198;2023-12-20T14:37:31;10.50;99.90
38854;DHT22;24606;51.992;4.198;2023-12-20T14:42:33;10.30;99.90
38854;DHT22;24606;51.992;4.198;2023-12-20T14:47:36;10.90;99.90
38854;DHT22;24606;51.992;4.198;2023-12-20T14:52:41;11.30;99.90
38854;DHT22;24606;51.992;4.198;2023-12-20T14:57:43;10.20;99.90
38854;DHT22;24606;51.992;4.198;2023-12-20T15:02:49;10.30;99.90
38854;DHT22;24606;51.992;4.198;2023-12-20T15:07:52;10.60;99.90
38854;DHT22;24606;51.992;4.198;2023-12-20T15:12:54;10.20;99.90
38854;DHT22;24606;51.992;4.198;2023-12-20T15:17:56;10.00;99.90
38854;DHT22;24606;51.992;4.198;2023-12-20T15:22:59;10.10;99.90
38854;DHT22;24606;51.992;4.198;2023-12-20T15:28:06;9.90;99.90
38854;DHT22;24606;51.992;4.198;2023-12-20T15:33:08;9.70;99.90
38854;DHT22;24606;51.992;4.198;2023-12-20T15:38:12;9.70;99.90
38854;DHT22;24606;51.992;4.198;2023-12-20T15:43:14;9.40;99.90
38854;DHT22;24606;51.992;4.198;2023-12-20T15:48:16;9.50;99.90
38854;DHT22;24606;51.992;4.198;2023-12-20T15:53:22;9.70;99.90
38854;DHT22;24606;51.992;4.198;2023-12-20T15:58:24;10.00;99.90
38854;DHT22;24606;51.992;4.198;2023-12-20T16:03:27;9.60;99.90
38854;DHT22;24606;51.992;4.198;2023-12-20T16:08:30;9.50;99.90
38854;DHT22;24606;51.992;4.198;2023-12-20T16:13:33;9.50;99.90
38854;DHT22;24606;51.992;4.198;2023-12-20T16:18:36;9.60;99.90
38854;DHT22;24606;51.992;4.198;2023-12-20T16:23:39;9.70;99.90
38854;DHT22;24606;51.992;4.198;2023-12-20T16:28:41;10.30;99.90
38854;DHT22;24606;51.992;4.198;2023-12-20T16:33:44;10.30;99.90
38854;DHT22;24606;51.992;4.198;2023-12-20T16:38:48;9.70;99.90
38854;DHT22;24606;51.992;4.198;2023-12-20T16:43:50;9.60;99.90
38854;DHT22;24606;51.992;4.198;2023-12-20T16:48:52;9.80;99.90
38854;DHT22;24606;51.992;4.198;2023-12-20T16:53:56;9.90;99.90
38854;DHT22;24606;51.992;4.198;2023-12-20T16:58:58;10.10;99.90
38854;DHT22;24606;51.992;4.198;2023-12-20T17:04:00;9.60;99.90
38854;DHT22;24606;51.992;4.198;2023-12-20T17:09:03;9.70;99.90
38854;DHT22;24606;51.992;4.198;2023-12-20T17:14:05;9.60;99.90
38854;DHT22;24606;51.992;4.198;2023-12-20T17:19:09;10.10;99.90
38854;DHT22;24606;51.992;4.198;2023-12-20T17:24:13;9.90;99.90
38854;DHT22;24606;51.992;4.198;2023-12-20T17:29:15;10.70;99.90
38854;DHT22;24606;51.992;4.198;2023-12-20T17:34:17;10.30;99.90
38854;DHT22;24606;51.992;4.198;2023-12-20T17:39:21;10.10;99.90
38854;DHT22;24606;51.992;4.198;2023-12-20T17:44:23;10.10;99.90
38854;DHT22;24606;51.992;4.198;2023-12-20T17:49:25;10.30;99.90
38854;DHT22;24606;51.992;4.198;2023-12-20T17:54:28;10.50;99.90
38854;DHT22;24606;51.992;4.198;2023-12-20T17:59:31;10.20;99.90
38854;DHT22;24606;51.992;4.198;2023-12-20T18:04:33;9.90;99.90
38854;DHT22;24606;51.992;4.198;2023-12-20T18:09:36;10.00;99.90
38854;DHT22;24606;51.992;4.198;2023-12-20T18:14:38;10.10;99.90
38854;DHT22;24606;51.992;4.198;2023-12-20T18:19:40;9.90;99.90
38854;DHT22;24606;51.992;4.198;2023-12-20T18:24:43;9.90;99.90
38854;DHT22;24606;51.992;4.198;2023-12-20T18:29:45;9.90;99.90
38854;DHT22;24606;51.992;4.198;2023-12-20T18:34:48;9.90;99.90
38854;DHT22;24606;51.992;4.198;2023-12-20T18:39:51;9.90;99.90
38854;DHT22;24606;51.992;4.198;2023-12-20T18:44:53;10.10;99.90
38854;DHT22;24606;51.992;4.198;2023-12-20T18:49:56;10.40;99.90
38854;DHT22;24606;51.992;4.198;2023-12-20T18:55:00;9.90;99.90
38854;DHT22;24606;51.992;4.198;2023-12-20T19:00:03;10.20;99.90
38854;DHT22;24606;51.992;4.198;2023-12-20T19:05:06;10.20;99.90
38854;DHT22;24606;51.992;4.198;2023-12-20T19:10:10;10.30;99.90
38854;DHT22;24606;51.992;4.198;2023-12-20T19:15:13;10.30;99.90
38854;DHT22;24606;51.992;4.198;2023-12-20T19:20:15;10.30;99.90
38854;DHT22;24606;51.992;4.198;2023-12-20T19:25:21;10.30;99.90
38854;DHT22;24606;51.992;4.198;2023-12-20T19:30:23;10.20;99.90
38854;DHT22;24606;51.992;4.198;2023-12-20T19:35:25;10.40;99.90
38854;DHT22;24606;51.992;4.198;2023-12-20T19:40:31;10.20;99.90
38854;DHT22;24606;51.992;4.198;2023-12-20T19:45:33;10.60;99.90
38854;DHT22;24606;51.992;4.198;2023-12-20T19:50:35;10.30;99.90
38854;DHT22;24606;51.992;4.198;2023-12-20T19:55:39;10.40;99.90
38854;DHT22;24606;51.992;4.198;2023-12-20T20:00:42;10.60;99.90
38854;DHT22;24606;51.992;4.198;2023-12-20T20:05:44;10.40;99.90
38854;DHT22;24606;51.992;4.198;2023-12-20T20:10:47;10.40;99.90
38854;DHT22;24606;51.992;4.198;2023-12-20T20:15:49;10.30;99.90
38854;DHT22;24606;51.992;4.198;2023-12-20T20:20:51;10.30;99.90
38854;DHT22;24606;51.992;4.198;2023-12-20T20:25:55;10.30;99.90
38854;DHT22;24606;51.992;4.198;2023-12-20T20:30:57;10.50;99.90
38854;DHT22;24606;51.992;4.198;2023-12-20T20:35:59;10.50;99.90
38854;DHT22;24606;51.992;4.198;2023-12-20T20:41:06;10.40;99.90
38854;DHT22;24606;51.992;4.198;2023-12-20T20:46:08;10.40;99.90
38854;DHT22;24606;51.992;4.198;2023-12-20T20:51:11;10.70;99.90
38854;DHT22;24606;51.992;4.198;2023-12-20T20:56:16;10.60;99.90
38854;DHT22;24606;51.992;4.198;2023-12-20T21:01:21;10.50;99.90
38854;DHT22;24606;51.992;4.198;2023-12-20T21:06:27;10.60;99.90
38854;DHT22;24606;51.992;4.198;2023-12-20T21:11:32;10.60;99.90
38854;DHT22;24606;51.992;4.198;2023-12-20T21:16:34;10.60;99.90
38854;DHT22;24606;51.992;4.198;2023-12-20T21:21:37;10.70;99.90
38854;DHT22;24606;51.992;4.198;2023-12-20T21:26:42;10.90;99.90
38854;DHT22;24606;51.992;4.198;2023-12-20T21:31:44;10.60;99.90
38854;DHT22;24606;51.992;4.198;2023-12-20T21:36:46;10.60;99.90
38854;DHT22;24606;51.992;4.198;2023-12-20T21:41:50;10.80;99.90
38854;DHT22;24606;51.992;4.198;2023-12-20T21:46:53;10.60;99.90
38854;DHT22;24606;51.992;4.198;2023-12-20T21:51:55;10.70;99.90
38854;DHT22;24606;51.992;4.198;2023-12-20T21:56:59;10.70;99.90
38854;DHT22;24606;51.992;4.198;2023-12-20T22:02:01;10.70;99.90
38854;DHT22;24606;51.992;4.198;2023-12-20T22:07:04;10.80;99.90
38854;DHT22;24606;51.992;4.198;2023-12-20T22:12:08;10.70;99.90
38854;DHT22;24606;51.992;4.198;2023-12-20T22:17:10;10.70;99.90
38854;DHT22;24606;51.992;4.198;2023-12-20T22:22:12;10.60;99.90
38854;DHT22;24606;51.992;4.198;2023-12-20T22:27:16;10.60;99.90
38854;DHT22;24606;51.992;4.198;2023-12-20T22:32:19;10.80;99.90
38854;DHT22;24606;51.992;4.198;2023-12-20T22:37:21;10.80;99.90
38854;DHT22;24606;51.992;4.198;2023-12-20T22:42:25;10.60;99.90
38854;DHT22;24606;51.992;4.198;2023-12-20T22:47:27;10.60;99.90
38854;DHT22;24606;51.992;4.198;2023-12-20T22:52:30;10.70;99.90
38854;DHT22;24606;51.992;4.198;2023-12-20T22:57:33;10.80;99.90
38854;DHT22;24606;51.992;4.198;2023-12-20T23:02:37;10.70;99.90
38854;DHT22;24606;51.992;4.198;2023-12-20T23:07:40;10.70;99.90
38854;DHT22;24606;51.992;4.198;2023-12-20T23:12:44;10.70;99.90
38854;DHT22;24606;51.992;4.198;2023-12-20T23:17:47;10.60;99.90
38854;DHT22;24606;51.992;4.198;2023-12-20T23:22:50;10.50;99.90
38854;DHT22;24606;51.992;4.198;2023-12-20T23:27:53;10.50;99.90
38854;DHT22;24606;51.992;4.198;2023-12-20T23:32:55;10.60;99.90
38854;DHT22;24606;51.992;4.198;2023-12-20T23:37:57;10.70;99.90
38854;DHT22;24606;51.992;4.198;2023-12-20T23:43:01;10.70;99.90
38854;DHT22;24606;51.992;4.198;2023-12-20T23:48:04;10.70;99.90
38854;DHT22;24606;51.992;4.198;2023-12-20T23:53:06;10.60;99.90
38854;DHT22;24606;51.992;4.198;2023-12-20T23:58:09;10.60;99.90
